Time;durP1;ratioP1;P1;durP2;ratioP2;P2;SDS_P1;SDS_P2;PMS_P1;PMS_P2;Temp;Humidity;BMP_temperature;BMP_pressure;BME280_temperature;BME280_humidity;BME280_pressure;Samples;Min_cycle;Max_cycle;Signal;HPM_P1;HPM_P2
2024/01/08 00:00:05;;;;;;;33.27;30.37;;;-2.20;85.50;;;;;;5036177;28;20191;-87
2024/01/08 00:02:31;;;;;;;32.53;30.13;;;-2.20;85.40;;;;;;5036546;28;20652;-87
2024/01/08 00:04:57;;;;;;;35.73;32.77;;;-2.20;85.30;;;;;;5036522;28;20271;-86
2024/01/08 00:07:22;;;;;;;16.07;14.33;;;-2.20;85.30;;;;;;5037314;28;20183;-88
2024/01/08 00:09:48;;;;;;;15.00;13.53;;;-2.20;85.10;;;;;;5038296;28;20253;-86
2024/01/08 00:12:14;;;;;;;15.40;14.10;;;-2.20;85.00;;;;;;5038679;28;20254;-87
2024/01/08 00:14:39;;;;;;;30.77;28.53;;;-2.20;85.00;;;;;;5037841;28;20242;-87
2024/01/08 00:17:05;;;;;;;31.33;29.03;;;-2.20;85.00;;;;;;5036908;28;20309;-86
2024/01/08 00:19:31;;;;;;;33.20;30.47;;;-2.30;85.00;;;;;;5037080;28;20240;-86
2024/01/08 00:21:57;;;;;;;14.67;13.17;;;-2.30;85.20;;;;;;5035536;28;20556;-88
2024/01/08 00:24:22;;;;;;;16.13;13.67;;;-2.40;85.30;;;;;;5036327;28;20180;-91
2024/01/08 00:26:48;;;;;;;31.13;28.83;;;-2.40;85.40;;;;;;5034581;28;20186;-85
2024/01/08 00:29:13;;;;;;;32.10;29.70;;;-2.40;85.40;;;;;;5035503;28;20186;-87
2024/01/08 00:31:39;;;;;;;31.47;29.17;;;-2.40;85.50;;;;;;5035871;28;20218;-86
2024/01/08 00:34:04;;;;;;;15.77;14.20;;;-2.50;85.60;;;;;;5037337;28;20182;-86
2024/01/08 00:36:31;;;;;;;15.47;13.97;;;-2.50;85.70;;;;;;5035286;28;20175;-85
2024/01/08 00:38:56;;;;;;;15.37;14.17;;;-2.40;85.60;;;;;;5034547;28;20226;-87
2024/01/08 00:41:22;;;;;;;15.23;13.80;;;-2.40;85.60;;;;;;5034443;28;20687;-87
2024/01/08 00:43:48;;;;;;;14.83;13.43;;;-2.40;85.60;;;;;;5036891;28;20529;-87
2024/01/08 00:46:14;;;;;;;15.37;13.93;;;-2.30;85.50;;;;;;5037498;28;20178;-90
2024/01/08 00:48:40;;;;;;;15.23;13.47;;;-2.30;85.50;;;;;;5037449;28;20177;-87
2024/01/08 00:51:05;;;;;;;15.67;14.13;;;-2.30;85.50;;;;;;5039874;28;20324;-90
2024/01/08 00:53:31;;;;;;;29.53;27.20;;;-2.30;85.30;;;;;;5038390;28;20679;-88
2024/01/08 00:55:56;;;;;;;30.67;27.97;;;-2.30;85.40;;;;;;5039983;28;20171;-85
2024/01/08 00:58:22;;;;;;;29.13;27.13;;;-2.30;85.20;;;;;;5041411;28;20235;-86
2024/01/08 01:00:47;;;;;;;32.50;29.90;;;-2.20;85.20;;;;;;5040409;28;20185;-85
2024/01/08 01:03:13;;;;;;;31.13;28.97;;;-2.20;85.10;;;;;;5039657;28;20183;-84
2024/01/08 01:05:38;;;;;;;27.47;25.57;;;-2.20;85.20;;;;;;5040804;28;20184;-86
2024/01/08 01:08:04;;;;;;;18.67;13.83;;;-2.20;85.10;;;;;;5039707;28;20317;-86
2024/01/08 01:10:29;;;;;;;14.83;13.43;;;-2.10;85.10;;;;;;5041516;28;20817;-85
2024/01/08 01:12:55;;;;;;;30.67;28.33;;;-2.10;85.10;;;;;;5041206;28;20200;-85
2024/01/08 01:15:20;;;;;;;29.83;27.63;;;-2.10;84.90;;;;;;5041105;28;20169;-85
2024/01/08 01:17:46;;;;;;;31.60;29.30;;;-2.10;85.10;;;;;;5039602;28;20226;-84
2024/01/08 01:20:12;;;;;;;19.40;13.50;;;-2.10;85.20;;;;;;5039354;28;20244;-84
2024/01/08 01:22:37;;;;;;;14.43;13.10;;;-2.10;85.20;;;;;;5040064;28;20713;-84
2024/01/08 01:25:03;;;;;;;25.43;23.33;;;-2.10;85.20;;;;;;5039068;28;20244;-85
2024/01/08 01:27:28;;;;;;;30.93;28.07;;;-2.10;85.20;;;;;;5040730;28;20185;-86
2024/01/08 01:29:54;;;;;;;33.03;30.17;;;-2.10;85.30;;;;;;5039195;28;20264;-84
2024/01/08 01:32:19;;;;;;;32.50;30.20;;;-2.10;85.40;;;;;;5039550;28;20202;-87
2024/01/08 01:34:45;;;;;;;14.37;13.00;;;-2.10;85.50;;;;;;5039934;28;20174;-85
2024/01/08 01:37:10;;;;;;;14.07;12.90;;;-2.10;85.60;;;;;;5039117;28;20173;-85
2024/01/08 01:39:36;;;;;;;28.80;26.70;;;-2.10;85.70;;;;;;5040514;28;20710;-85
2024/01/08 01:42:02;;;;;;;28.33;26.23;;;-2.10;85.80;;;;;;5040134;28;20180;-86
2024/01/08 01:44:28;;;;;;;30.87;28.53;;;-2.10;85.90;;;;;;5038918;28;20196;-84
2024/01/08 01:46:54;;;;;;;33.90;31.33;;;-2.00;85.90;;;;;;5038378;28;20231;-85
2024/01/08 01:49:21;;;;;;;13.83;12.53;;;-2.00;85.90;;;;;;5038792;28;20602;-87
2024/01/08 01:51:48;;;;;;;13.83;12.53;;;-2.00;85.90;;;;;;5039905;28;20250;-86
2024/01/08 01:54:15;;;;;;;29.80;27.37;;;-2.00;86.00;;;;;;5038381;28;20248;-86
2024/01/08 01:56:43;;;;;;;31.50;29.20;;;-2.00;86.10;;;;;;5039337;28;20173;-84
2024/01/08 01:59:10;;;;;;;31.80;29.47;;;-2.00;86.30;;;;;;5039008;28;20187;-85
2024/01/08 02:01:36;;;;;;;13.40;12.33;;;-2.00;86.30;;;;;;5038912;28;20197;-85
2024/01/08 02:04:03;;;;;;;13.03;11.83;;;-1.90;86.50;;;;;;5038844;28;20245;-85
2024/01/08 02:06:29;;;;;;;27.73;25.73;;;-2.00;86.60;;;;;;5039270;28;20279;-87
2024/01/08 02:08:55;;;;;;;30.00;27.77;;;-1.90;86.70;;;;;;5039436;28;20181;-85
2024/01/08 02:11:21;;;;;;;30.87;28.50;;;-1.90;86.80;;;;;;5039023;28;20276;-85
2024/01/08 02:13:48;;;;;;;33.20;30.63;;;-2.00;86.90;;;;;;5039308;28;20208;-85
2024/01/08 02:16:14;;;;;;;13.67;12.47;;;-1.90;87.00;;;;;;5039362;28;20175;-87
2024/01/08 02:18:40;;;;;;;14.63;13.17;;;-1.90;87.10;;;;;;5037754;28;20189;-84
2024/01/08 02:21:06;;;;;;;31.40;28.53;;;-1.90;87.00;;;;;;5036960;28;20203;-85
2024/01/08 02:23:31;;;;;;;33.00;30.50;;;-1.90;87.10;;;;;;5037136;28;20648;-84
2024/01/08 02:25:57;;;;;;;32.17;29.87;;;-1.90;87.10;;;;;;5037026;28;20738;-87
2024/01/08 02:28:23;;;;;;;14.30;13.03;;;-1.80;87.20;;;;;;5038776;28;20210;-85
2024/01/08 02:30:48;;;;;;;;;;;-1.80;87.20;;;;;;5037056;28;20219;-85
2024/01/08 02:33:14;;;;;;;15.17;13.13;;;-1.80;87.20;;;;;;5038564;28;20390;-85
2024/01/08 02:35:40;;;;;;;28.90;26.77;;;-1.80;87.30;;;;;;5037302;28;20168;-85
2024/01/08 02:38:05;;;;;;;32.13;29.63;;;-1.70;87.40;;;;;;5037210;28;20172;-86
2024/01/08 02:40:31;;;;;;;33.63;31.10;;;-1.80;87.40;;;;;;5038312;28;20185;-85
2024/01/08 02:42:56;;;;;;;16.30;12.93;;;-1.80;87.40;;;;;;5037123;28;20179;-85
2024/01/08 02:45:22;;;;;;;14.40;12.87;;;-1.70;87.40;;;;;;5036391;28;20180;-88
2024/01/08 02:47:47;;;;;;;31.37;29.07;;;-1.70;87.40;;;;;;5037024;28;20181;-87
2024/01/08 02:50:13;;;;;;;32.90;30.40;;;-1.60;87.50;;;;;;5037003;28;20200;-86
2024/01/08 02:52:38;;;;;;;34.53;32.13;;;-1.60;87.50;;;;;;5038213;28;20266;-84
2024/01/08 02:55:04;;;;;;;14.27;13.03;;;-1.70;87.50;;;;;;5036983;28;20206;-87
2024/01/08 02:57:30;;;;;;;15.50;14.00;;;-1.80;87.60;;;;;;5038936;28;20172;-85
2024/01/08 02:59:56;;;;;;;14.90;13.47;;;-1.80;87.80;;;;;;5039262;28;20541;-87
2024/01/08 03:02:24;;;;;;;31.73;29.33;;;-1.80;87.90;;;;;;5035668;28;20181;-86
2024/01/08 03:04:49;;;;;;;34.53;31.93;;;-1.70;88.00;;;;;;5034110;28;20684;-83
2024/01/08 03:07:18;;;;;;;34.70;32.30;;;-1.70;88.10;;;;;;5036136;28;20169;-87
2024/01/08 03:09:44;;;;;;;15.77;14.17;;;-1.70;88.30;;;;;;5032734;28;20192;-85
2024/01/08 03:12:11;;;;;;;15.70;14.23;;;-1.70;88.40;;;;;;5032645;28;20212;-86
2024/01/08 03:14:36;;;;;;;34.53;32.13;;;-1.70;88.50;;;;;;5033897;28;20191;-86
2024/01/08 03:17:02;;;;;;;34.00;31.70;;;-1.70;88.50;;;;;;5032967;28;20710;-85
2024/01/08 03:19:27;;;;;;;33.90;31.70;;;-1.70;88.50;;;;;;5032434;28;20260;-85
2024/01/08 03:21:53;;;;;;;17.77;16.17;;;-1.70;88.50;;;;;;5034622;28;20185;-85
2024/01/08 03:24:19;;;;;;;16.47;15.10;;;-1.60;88.60;;;;;;5035552;28;20205;-85
2024/01/08 03:26:44;;;;;;;16.43;14.93;;;-1.60;88.60;;;;;;5035165;28;20264;-85
2024/01/08 03:29:09;;;;;;;;;;;-1.60;88.50;;;;;;5035239;28;20188;-84
2024/01/08 03:31:41;;;;;;;35.80;33.40;;;-1.60;88.60;;;;;;5036308;28;20355;-86
2024/01/08 03:34:06;;;;;;;37.50;34.80;;;-1.60;88.60;;;;;;5034849;28;20170;-84
2024/01/08 03:36:33;;;;;;;16.97;14.97;;;-1.60;88.70;;;;;;5036200;28;20192;-85
2024/01/08 03:38:59;;;;;;;17.00;15.60;;;-1.60;88.70;;;;;;5036274;28;20546;-87
2024/01/08 03:41:25;;;;;;;35.97;33.37;;;-1.60;88.80;;;;;;5036867;28;20276;-85
2024/01/08 03:43:50;;;;;;;38.33;35.53;;;-1.60;88.80;;;;;;5035123;28;20263;-86
2024/01/08 03:46:16;;;;;;;34.37;31.27;;;-1.50;88.70;;;;;;5036439;28;20194;-84
2024/01/08 03:48:42;;;;;;;16.30;14.70;;;-1.50;88.40;;;;;;5036475;28;20234;-88
2024/01/08 03:51:07;;;;;;;16.73;14.90;;;-1.50;88.20;;;;;;5035046;28;20232;-87
2024/01/08 03:53:33;;;;;;;15.60;14.07;;;-1.50;88.20;;;;;;5035468;28;20537;-85
2024/01/08 03:55:58;;;;;;;32.20;29.50;;;-1.50;88.10;;;;;;5035255;28;20172;-85
2024/01/08 03:58:25;;;;;;;31.10;28.60;;;-1.50;88.10;;;;;;5036062;28;20180;-87
2024/01/08 04:00:54;;;;;;;30.90;28.53;;;-1.50;88.00;;;;;;5036620;28;20216;-86
2024/01/08 04:03:20;;;;;;;14.83;13.53;;;-1.40;88.00;;;;;;5037009;28;20177;-85
2024/01/08 04:05:46;;;;;;;16.17;13.13;;;-1.50;88.00;;;;;;5037496;28;20171;-85
2024/01/08 04:08:11;;;;;;;26.87;24.63;;;-1.50;88.10;;;;;;5035631;28;20184;-85
2024/01/08 04:10:37;;;;;;;27.33;25.33;;;-1.50;88.10;;;;;;5036769;28;20200;-86
2024/01/08 04:13:03;;;;;;;30.50;28.00;;;-1.50;88.20;;;;;;5035391;28;20227;-87
2024/01/08 04:15:29;;;;;;;12.70;11.50;;;-1.50;88.20;;;;;;5036435;28;20256;-88
2024/01/08 04:17:54;;;;;;;13.73;12.30;;;-1.40;88.20;;;;;;5043798;28;20663;-85
2024/01/08 04:20:20;;;;;;;12.90;11.80;;;-1.40;88.30;;;;;;5044424;28;20294;-85
2024/01/08 04:22:47;;;;;;;15.50;12.07;;;-1.40;88.30;;;;;;5043693;28;20181;-86
2024/01/08 04:25:13;;;;;;;14.03;12.27;;;-1.40;88.40;;;;;;5043877;28;20176;-85
2024/01/08 04:27:38;;;;;;;11.70;10.63;;;-1.30;88.60;;;;;;5038778;28;20178;-86
2024/01/08 04:30:05;;;;;;;13.47;11.47;;;-1.40;88.60;;;;;;5038822;28;20199;-85
2024/01/08 04:32:30;;;;;;;13.53;12.07;;;-1.40;88.50;;;;;;5040194;28;20208;-85
2024/01/08 04:34:56;;;;;;;24.13;22.33;;;-1.40;88.50;;;;;;5039037;28;20177;-86
2024/01/08 04:37:21;;;;;;;23.50;21.70;;;-1.40;88.50;;;;;;5040146;28;20183;-85
2024/01/08 04:39:47;;;;;;;28.77;26.27;;;-1.40;88.50;;;;;;5039915;28;20198;-85
2024/01/08 04:42:12;;;;;;;25.40;22.90;;;-1.40;88.50;;;;;;5039049;28;20594;-85
2024/01/08 04:44:38;;;;;;;26.27;24.23;;;-1.30;88.50;;;;;;5038706;28;20266;-84
2024/01/08 04:47:03;;;;;;;27.20;25.20;;;-1.30;88.50;;;;;;5038726;28;20185;-86
2024/01/08 04:49:29;;;;;;;28.30;26.13;;;-1.30;88.50;;;;;;5040020;28;20176;-85
2024/01/08 04:51:54;;;;;;;27.17;24.97;;;-1.30;88.40;;;;;;5039903;28;20273;-85
2024/01/08 04:54:20;;;;;;;27.83;25.70;;;-1.30;88.30;;;;;;5039726;28;20176;-85
2024/01/08 04:56:48;;;;;;;13.93;11.67;;;-1.30;88.20;;;;;;5040033;28;20176;-86
2024/01/08 04:59:13;;;;;;;15.23;12.37;;;-1.30;88.10;;;;;;5039625;28;20169;-86
2024/01/08 05:01:39;;;;;;;24.50;22.80;;;-1.30;88.00;;;;;;5039718;28;20666;-86
2024/01/08 05:04:05;;;;;;;27.50;25.33;;;-1.20;88.00;;;;;;5038313;28;20177;-85
2024/01/08 05:06:30;;;;;;;27.30;25.37;;;-1.30;87.90;;;;;;5038405;28;20174;-86
2024/01/08 05:08:56;;;;;;;11.63;10.80;;;-1.20;87.90;;;;;;5038516;28;20180;-85
2024/01/08 05:11:21;;;;;;;13.20;12.00;;;-1.20;87.80;;;;;;5039485;28;20208;-84
2024/01/08 05:13:47;;;;;;;22.73;20.90;;;-1.20;87.70;;;;;;5039938;28;20618;-84
2024/01/08 05:16:12;;;;;;;25.77;23.87;;;-1.20;87.70;;;;;;5038447;28;20173;-87
2024/01/08 05:18:38;;;;;;;26.77;24.77;;;-1.20;87.70;;;;;;5039246;28;20232;-89
2024/01/08 05:21:04;;;;;;;28.33;26.23;;;-1.20;87.50;;;;;;5039270;28;20201;-86
2024/01/08 05:23:30;;;;;;;13.07;11.80;;;-1.10;87.50;;;;;;5038207;28;20177;-86
2024/01/08 05:25:59;;;;;;;13.63;12.40;;;-1.10;87.50;;;;;;5040057;28;20185;-85
2024/01/08 05:28:25;;;;;;;26.20;23.93;;;-1.10;87.40;;;;;;5036641;28;20174;-85
2024/01/08 05:30:51;;;;;;;;;;;-1.10;87.50;;;;;;5036334;28;20274;-86
2024/01/08 05:33:16;;;;;;;;;;;-1.20;87.50;;;;;;5035135;28;20055;-85
2024/01/08 05:35:42;;;;;;;;;;;-1.10;87.30;;;;;;5035569;28;19980;-85
2024/01/08 05:38:07;;;;;;;17.27;12.50;;;-1.10;87.30;;;;;;5036147;28;20305;-86
2024/01/08 05:40:33;;;;;;;25.73;23.40;;;-1.10;87.10;;;;;;5034792;28;20207;-85
2024/01/08 05:42:58;;;;;;;24.03;22.07;;;-1.00;87.00;;;;;;5034696;28;20196;-87
2024/01/08 05:45:24;;;;;;;22.97;21.10;;;-1.00;87.00;;;;;;5035148;28;20176;-86
2024/01/08 05:47:50;;;;;;;23.47;21.70;;;-1.10;87.00;;;;;;5035962;28;20192;-85
2024/01/08 05:50:16;;;;;;;12.20;10.93;;;-1.00;87.00;;;;;;5034620;28;20192;-86
2024/01/08 05:52:45;;;;;;;12.67;11.40;;;-1.00;86.90;;;;;;5035245;28;20255;-86
2024/01/08 05:55:14;;;;;;;22.93;21.10;;;-0.90;86.80;;;;;;5035651;28;20214;-87
2024/01/08 05:57:40;;;;;;;21.90;20.10;;;-0.90;86.80;;;;;;5035522;28;20181;-86
2024/01/08 06:00:06;;;;;;;24.70;22.37;;;-1.00;86.70;;;;;;5034413;28;20193;-85
2024/01/08 06:02:31;;;;;;;12.53;11.30;;;-0.90;86.30;;;;;;5034042;28;20219;-84
2024/01/08 06:04:57;;;;;;;12.15;10.90;;;-0.90;86.30;;;;;;5035464;28;20197;-86
2024/01/08 06:07:23;;;;;;;19.83;18.33;;;-0.80;86.00;;;;;;5035232;28;20176;-85
2024/01/08 06:09:48;;;;;;;20.90;19.07;;;-0.80;86.00;;;;;;5034060;28;20203;-86
2024/01/08 06:12:14;;;;;;;21.40;19.67;;;-0.80;85.80;;;;;;5033713;28;20204;-87
2024/01/08 06:14:41;;;;;;;20.43;18.90;;;-0.80;85.80;;;;;;5035113;28;20173;-86
2024/01/08 06:17:07;;;;;;;12.27;11.27;;;-0.80;85.60;;;;;;5033842;28;20173;-87
2024/01/08 06:19:33;;;;;;;12.50;11.50;;;-0.70;85.30;;;;;;5034599;28;20280;-85
2024/01/08 06:21:59;;;;;;;19.30;18.10;;;-0.70;85.20;;;;;;5034852;28;20176;-83
2024/01/08 06:24:25;;;;;;;20.30;19.03;;;-0.70;85.40;;;;;;5034749;28;20213;-84
2024/01/08 06:26:51;;;;;;;17.20;15.87;;;-0.70;85.10;;;;;;5035127;28;20275;-83
2024/01/08 06:29:16;;;;;;;11.50;10.40;;;-0.70;85.00;;;;;;5035820;28;20177;-85
2024/01/08 06:31:42;;;;;;;11.47;10.37;;;-0.70;84.90;;;;;;5035706;28;20280;-85
2024/01/08 06:34:08;;;;;;;21.73;19.87;;;-0.70;84.90;;;;;;5034408;28;20223;-84
2024/01/08 06:36:34;;;;;;;22.07;20.40;;;-0.70;84.90;;;;;;5034746;28;20192;-82
2024/01/08 06:39:00;;;;;;;19.50;18.20;;;-0.70;85.00;;;;;;5034486;28;20183;-82
2024/01/08 06:41:26;;;;;;;11.73;10.77;;;-0.70;84.50;;;;;;5034668;28;20269;-85
2024/01/08 06:43:52;;;;;;;11.67;10.50;;;-0.60;84.60;;;;;;5034903;28;20189;-84
2024/01/08 06:46:18;;;;;;;22.83;21.33;;;-0.70;84.60;;;;;;5036609;28;20516;-84
2024/01/08 06:48:44;;;;;;;24.47;22.80;;;-0.70;84.70;;;;;;5036142;28;20200;-85
2024/01/08 06:51:11;;;;;;;21.33;19.73;;;-0.60;84.40;;;;;;5034326;28;20193;-84
2024/01/08 06:53:37;;;;;;;11.87;11.07;;;-0.60;84.40;;;;;;5034669;28;20173;-87
2024/01/08 06:56:03;;;;;;;11.60;10.40;;;-0.70;84.40;;;;;;5034310;28;20574;-87
2024/01/08 06:58:28;;;;;;;19.13;17.73;;;-0.60;84.40;;;;;;5034152;28;20181;-84
2024/01/08 07:00:54;;;;;;;22.43;20.90;;;-0.70;84.60;;;;;;5035411;28;20197;-84
2024/01/08 07:03:20;;;;;;;19.10;17.57;;;-0.70;84.60;;;;;;5035990;28;20260;-83
2024/01/08 07:05:47;;;;;;;13.30;12.05;;;-0.70;84.50;;;;;;5034770;28;20180;-84
2024/01/08 07:08:13;;;;;;;;;;;-0.70;84.50;;;;;;5036517;28;19943;-85
2024/01/08 07:10:39;;;;;;;;;;;-0.70;84.50;;;;;;5036283;28;20270;-85
2024/01/08 07:13:04;;;;;;;;;;;-0.70;84.60;;;;;;5036452;28;19916;-85
2024/01/08 07:15:40;;;;;;;;;;;-0.70;84.50;;;;;;5034765;28;19905;-85
2024/01/08 07:18:05;;;;;;;;;;;-0.80;84.60;;;;;;5035246;28;19955;-85
2024/01/08 07:20:31;;;;;;;;;;;-0.80;84.50;;;;;;5051384;28;19913;-84
2024/01/08 07:22:56;;;;;;;;;;;-0.90;84.50;;;;;;5035290;28;19992;-84
2024/01/08 07:25:22;;;;;;;;;;;-1.00;84.60;;;;;;5034953;28;19905;-85
2024/01/08 07:27:47;;;;;;;;;;;-1.00;84.80;;;;;;5034352;28;19905;-85
2024/01/08 07:30:13;;;;;;;;;;;-1.10;84.80;;;;;;5051430;28;19962;-84
2024/01/08 07:32:38;;;;;;;;;;;-1.10;84.90;;;;;;5034671;28;19909;-85
2024/01/08 07:35:04;;;;;;;;;;;-1.20;85.00;;;;;;5036198;28;19905;-85
2024/01/08 07:37:29;;;;;;;;;;;-1.20;85.30;;;;;;5035050;28;19905;-85
2024/01/08 07:39:55;;;;;;;;;;;-1.20;85.60;;;;;;5036469;28;19943;-84
2024/01/08 07:42:20;;;;;;;;;;;-1.20;85.70;;;;;;5034579;28;19913;-85
2024/01/08 07:44:46;;;;;;;;;;;-1.20;85.80;;;;;;5036361;28;19912;-87
2024/01/08 07:47:11;;;;;;;;;;;-1.10;85.80;;;;;;5051399;28;20386;-84
2024/01/08 07:49:37;;;;;;;;;;;-1.10;85.80;;;;;;5034748;28;19909;-85
2024/01/08 07:52:02;;;;;;;;;;;-1.10;85.70;;;;;;5050921;28;19908;-84
2024/01/08 07:54:28;;;;;;;;;;;-1.10;85.60;;;;;;5034570;28;19905;-85
2024/01/08 07:56:53;;;;;;;;;;;-1.10;85.70;;;;;;5034714;28;19963;-85
2024/01/08 07:59:19;;;;;;;;;;;-1.10;85.60;;;;;;5034819;28;19959;-84
2024/01/08 08:01:44;;;;;;;;;;;-1.10;85.50;;;;;;5036707;28;19905;-84
2024/01/08 08:04:09;;;;;;;;;;;-1.20;85.50;;;;;;5051853;28;19995;-87
2024/01/08 08:06:35;;;;;;;;;;;-1.20;85.40;;;;;;5034879;28;19952;-85
2024/01/08 08:09:01;;;;;;;;;;;-1.20;85.30;;;;;;5035531;28;19905;-86
2024/01/08 08:11:27;;;;;;;;;;;-1.30;85.30;;;;;;5036794;28;19905;-84
2024/01/08 08:13:53;;;;;;;;;;;-1.30;85.20;;;;;;5051930;28;19905;-85
2024/01/08 08:16:18;;;;;;;;;;;-1.30;85.00;;;;;;5035502;28;19912;-85
2024/01/08 08:18:44;;;;;;;;;;;-1.40;85.00;;;;;;5035217;28;19963;-85
2024/01/08 08:21:10;;;;;;;;;;;-1.40;84.90;;;;;;5036773;28;19955;-84
2024/01/08 08:23:35;;;;;;;;;;;-1.40;84.60;;;;;;5036773;28;20285;-83
2024/01/08 08:26:02;;;;;;;;;;;-1.30;84.30;;;;;;5035731;28;20336;-85
2024/01/08 08:28:28;;;;;;;15.80;14.50;;;-1.30;84.10;;;;;;5036026;28;20067;-84
2024/01/08 08:30:54;;;;;;;27.50;25.03;;;-1.20;83.80;;;;;;5036500;28;20719;-86
2024/01/08 08:33:20;;;;;;;29.87;27.33;;;-1.30;83.90;;;;;;5036516;28;20196;-85
2024/01/08 08:35:45;;;;;;;24.80;22.80;;;-1.30;83.70;;;;;;5035246;28;20169;-87
2024/01/08 08:38:12;;;;;;;15.50;14.27;;;-1.30;83.60;;;;;;5036359;28;20176;-85
2024/01/08 08:40:38;;;;;;;16.83;15.17;;;-1.30;83.40;;;;;;5035817;28;20224;-85
2024/01/08 08:43:03;;;;;;;25.17;23.37;;;-1.30;83.20;;;;;;5037732;28;20180;-85
2024/01/08 08:45:29;;;;;;;27.93;25.93;;;-1.30;82.90;;;;;;5037158;28;20302;-87
2024/01/08 08:47:54;;;;;;;25.83;23.60;;;-1.30;82.40;;;;;;5036228;28;20176;-85
2024/01/08 08:50:20;;;;;;;16.60;15.30;;;-1.30;81.80;;;;;;5037924;28;20204;-85
2024/01/08 08:52:46;;;;;;;18.60;16.80;;;-1.20;81.60;;;;;;5037393;28;20193;-85
2024/01/08 08:55:12;;;;;;;30.73;28.63;;;-1.20;81.00;;;;;;5035100;28;20707;-83
2024/01/08 08:57:37;;;;;;;30.13;27.83;;;-1.20;79.90;;;;;;5034064;28;20169;-84
2024/01/08 09:00:06;;;;;;;27.83;25.87;;;-1.20;79.50;;;;;;5032535;28;20203;-83
2024/01/08 09:02:32;;;;;;;19.60;18.07;;;-1.10;79.40;;;;;;5034067;28;20171;-84
2024/01/08 09:04:58;;;;;;;19.87;18.47;;;-1.10;79.20;;;;;;5040342;28;20318;-84
2024/01/08 09:07:23;;;;;;;31.70;29.37;;;-1.10;78.30;;;;;;5039014;28;20211;-84
2024/01/08 09:09:49;;;;;;;34.23;31.83;;;-1.00;78.40;;;;;;5040787;28;20200;-85
2024/01/08 09:12:15;;;;;;;38.17;35.27;;;-1.00;78.30;;;;;;5038842;28;20204;-85
2024/01/08 09:14:41;;;;;;;20.40;18.80;;;-1.00;78.40;;;;;;5040340;28;20521;-84
2024/01/08 09:17:07;;;;;;;21.20;19.50;;;-1.00;79.10;;;;;;5038833;28;20172;-85
2024/01/08 09:19:34;;;;;;;28.40;26.40;;;-1.00;79.00;;;;;;5039885;28;20208;-85
2024/01/08 09:22:00;;;;;;;35.10;32.60;;;-1.00;78.60;;;;;;5040225;28;20727;-84
2024/01/08 09:24:25;;;;;;;36.17;33.67;;;-0.90;78.00;;;;;;5038925;28;20185;-85
2024/01/08 09:26:51;;;;;;;20.60;19.00;;;-0.90;78.00;;;;;;5038558;28;20184;-87
2024/01/08 09:29:17;;;;;;;20.77;19.17;;;-0.90;77.90;;;;;;5036588;28;20284;-87
2024/01/08 09:31:42;;;;;;;20.70;19.13;;;-0.90;77.70;;;;;;5037172;28;20200;-88
2024/01/08 09:34:08;;;;;;;35.47;32.97;;;-0.90;77.70;;;;;;5037611;28;20536;-87
2024/01/08 09:36:33;;;;;;;36.47;33.97;;;-0.90;77.30;;;;;;5037731;28;20184;-87
2024/01/08 09:38:59;;;;;;;22.07;20.03;;;-0.80;76.60;;;;;;5036066;28;20184;-89
2024/01/08 09:41:25;;;;;;;20.53;19.13;;;-0.80;76.80;;;;;;5035863;28;20205;-87
2024/01/08 09:43:52;;;;;;;21.80;20.10;;;-0.80;76.90;;;;;;5036206;28;20177;-88
2024/01/08 09:46:26;;;;;;;37.10;34.43;;;-0.80;76.80;;;;;;5036201;28;20188;-89
2024/01/08 09:48:54;;;;;;;37.53;34.97;;;-0.80;76.40;;;;;;5036296;28;20180;-88
2024/01/08 09:51:20;;;;;;;28.00;26.03;;;-0.70;77.00;;;;;;5038053;28;20204;-89
2024/01/08 09:53:45;;;;;;;22.07;20.30;;;-0.70;77.50;;;;;;5035446;28;20173;-88
2024/01/08 09:56:13;;;;;;;20.93;19.33;;;-0.60;76.90;;;;;;5035135;28;20204;-89
2024/01/08 09:58:39;;;;;;;36.43;33.87;;;-0.50;77.00;;;;;;5036746;28;20260;-89
2024/01/08 10:01:04;;;;;;;39.20;36.50;;;-0.50;75.50;;;;;;5035989;28;20224;-87
2024/01/08 10:03:30;;;;;;;34.13;31.70;;;-0.50;76.50;;;;;;5035988;28;20184;-88
2024/01/08 10:05:56;;;;;;;21.53;19.93;;;-0.50;76.70;;;;;;5035027;28;20180;-89
2024/01/08 10:08:22;;;;;;;22.20;20.47;;;-0.40;76.00;;;;;;5035474;28;20751;-89
2024/01/08 10:10:48;;;;;;;37.73;34.70;;;-0.40;76.60;;;;;;5036411;28;20189;-90
2024/01/08 10:13:14;;;;;;;36.83;34.33;;;-0.40;76.30;;;;;;5035473;28;20581;-87
2024/01/08 10:15:47;;;;;;;26.70;24.67;;;-0.40;75.60;;;;;;5035945;28;20172;-87
2024/01/08 10:18:16;;;;;;;20.67;19.07;;;-0.50;75.40;;;;;;5036530;28;20651;-90
2024/01/08 10:20:44;;;;;;;21.67;19.97;;;-0.50;76.30;;;;;;5035959;28;20205;-89
2024/01/08 10:23:10;;;;;;;21.37;19.77;;;-0.50;76.40;;;;;;5034577;28;20593;-91
2024/01/08 10:25:37;;;;;;;31.50;29.10;;;-0.50;76.10;;;;;;5036495;28;20178;-92
2024/01/08 10:28:09;;;;;;;31.43;28.97;;;-0.50;76.90;;;;;;5042149;28;20199;-93
2024/01/08 10:30:35;;;;;;;30.93;28.70;;;-0.40;76.40;;;;;;5049247;28;20197;-90
2024/01/08 10:33:21;;;;;;;32.07;29.67;;;-0.40;76.70;;;;;;5048838;28;20202;-92
2024/01/08 10:36:05;;;;;;;21.80;20.20;;;-0.40;76.50;;;;;;5037966;28;20185;-93
2024/01/08 10:38:32;;;;;;;22.60;20.70;;;-0.40;76.10;;;;;;5033393;28;20705;-91
2024/01/08 10:41:00;;;;;;;30.63;28.53;;;-0.40;76.50;;;;;;5035719;28;20227;-91
2024/01/08 10:43:27;;;;;;;34.30;31.83;;;-0.40;76.40;;;;;;5034272;28;20180;-90
2024/01/08 10:45:58;;;;;;;31.35;29.05;;;-0.40;76.80;;;;;;5033936;28;20354;-90
2024/01/08 10:48:32;;;;;;;31.70;29.50;;;-0.40;76.60;;;;;;5038000;28;20229;-89
2024/01/08 10:51:00;;;;;;;28.37;26.17;;;-0.40;76.60;;;;;;5037307;28;20193;-90
2024/01/08 10:53:46;;;;;;;30.10;27.90;;;-0.30;76.50;;;;;;5036234;28;20283;-89
2024/01/08 10:56:14;;;;;;;32.53;30.03;;;-0.40;76.10;;;;;;5036212;28;20156;-91
2024/01/08 10:58:52;;;;;;;34.70;32.40;;;-0.40;76.00;;;;;;5033530;28;20224;-90
2024/01/08 11:01:22;;;;;;;22.33;20.63;;;-0.30;76.80;;;;;;5034186;28;20684;-91
2024/01/08 11:03:48;;;;;;;21.73;20.00;;;-0.40;76.30;;;;;;5035504;28;20203;-91
2024/01/08 11:06:14;;;;;;;34.93;32.23;;;-0.40;76.40;;;;;;5034007;28;20186;-90
2024/01/08 11:08:42;;;;;;;36.10;33.60;;;-0.30;76.70;;;;;;5035730;28;20668;-90
2024/01/08 11:11:09;;;;;;;42.97;39.87;;;-0.20;76.50;;;;;;5032949;28;20222;-91
2024/01/08 11:13:36;;;;;;;22.73;20.93;;;-0.10;76.50;;;;;;5033224;28;20198;-91
2024/01/08 11:16:06;;;;;;;24.03;21.83;;;-0.10;76.10;;;;;;5033482;28;20180;-90
2024/01/08 11:18:32;;;;;;;37.40;34.67;;;0.00;76.10;;;;;;5034028;28;20313;-91
2024/01/08 11:20:59;;;;;;;38.50;35.77;;;0.00;75.40;;;;;;5033516;28;20690;-92
2024/01/08 11:23:30;;;;;;;42.57;39.67;;;0.00;75.20;;;;;;5033045;28;20188;-89
2024/01/08 11:25:55;;;;;;;22.50;20.70;;;0.00;75.50;;;;;;5032487;28;20342;-91
2024/01/08 11:28:21;;;;;;;21.50;20.00;;;0.00;75.60;;;;;;5033035;28;20663;-92
2024/01/08 11:30:54;;;;;;;22.80;20.97;;;-0.10;75.70;;;;;;5034380;28;20232;-91
2024/01/08 11:34:06;;;;;;;39.03;36.33;;;-0.10;75.40;;;;;;5033239;28;20201;-90
2024/01/08 11:36:49;;;;;;;42.47;39.20;;;0.00;75.40;;;;;;5012070;28;20191;-89
2024/01/08 11:39:17;;;;;;;23.50;21.60;;;0.00;75.70;;;;;;5036407;28;20660;-91
2024/01/08 11:41:45;;;;;;;22.63;20.73;;;-0.10;75.70;;;;;;5034900;28;20728;-91
2024/01/08 11:44:10;;;;;;;35.20;32.80;;;-0.10;76.00;;;;;;5035960;28;20180;-92
2024/01/08 11:46:36;;;;;;;38.27;35.63;;;0.00;76.10;;;;;;5039019;28;20246;-89
2024/01/08 11:49:05;;;;;;;37.97;35.37;;;-0.10;76.20;;;;;;5038039;28;20563;-90
2024/01/08 11:51:32;;;;;;;22.60;20.90;;;-0.10;76.30;;;;;;5038920;28;20201;-90
2024/01/08 11:54:04;;;;;;;22.40;20.13;;;-0.10;76.00;;;;;;5035249;28;20187;-88
2024/01/08 11:56:29;;;;;;;28.07;26.17;;;-0.10;76.50;;;;;;5032749;28;20173;-90
2024/01/08 11:58:55;;;;;;;35.03;32.27;;;-0.10;76.10;;;;;;5033999;28;20579;-91
2024/01/08 12:01:21;;;;;;;34.87;32.57;;;-0.10;76.50;;;;;;5033092;28;20209;-89
2024/01/08 12:03:46;;;;;;;19.90;18.50;;;0.00;76.30;;;;;;5034384;28;20180;-90
2024/01/08 12:06:12;;;;;;;18.33;17.03;;;0.00;77.00;;;;;;5033133;28;20184;-92
2024/01/08 12:08:38;;;;;;;20.33;18.73;;;0.00;77.50;;;;;;5033229;28;20540;-91
2024/01/08 12:11:05;;;;;;;35.23;32.47;;;0.00;77.20;;;;;;5032552;28;20252;-91
2024/01/08 12:13:30;;;;;;;;;;;0.00;76.90;;;;;;5040813;28;20202;-91
2024/01/08 12:15:56;;;;;;;19.57;18.17;;;0.00;77.00;;;;;;5034235;28;20039;-91
2024/01/08 12:18:22;;;;;;;20.20;18.80;;;0.00;76.70;;;;;;5033865;28;20174;-93
2024/01/08 12:20:49;;;;;;;20.80;19.30;;;0.00;75.50;;;;;;5032633;28;20283;-90
2024/01/08 12:23:15;;;;;;;23.30;21.60;;;0.00;76.30;;;;;;5032973;28;20179;-90
2024/01/08 12:25:41;;;;;;;21.83;20.33;;;0.00;76.30;;;;;;5032216;28;20189;-90
2024/01/08 12:28:07;;;;;;;20.03;18.60;;;-0.10;75.70;;;;;;5032498;28;20210;-87
2024/01/08 12:30:32;;;;;;;20.23;18.37;;;-0.10;76.20;;;;;;5032552;28;20219;-90
2024/01/08 12:32:58;;;;;;;21.23;19.10;;;-0.10;76.70;;;;;;5031935;28;20206;-92
2024/01/08 12:35:24;;;;;;;19.60;18.30;;;-0.10;76.50;;;;;;5032450;28;20177;-90